sensor_id;sensor_type;location;lat;lon;timestamp;temperature;humidity
7516;DHT22;3799;47.184;8.538;2023-08-30T00:01:12;12.90;99.90
7516;DHT22;3799;47.184;8.538;2023-08-30T00:03:39;12.90;99.90
7516;DHT22;3799;47.184;8.538;2023-08-30T00:06:07;13.20;99.90
7516;DHT22;3799;47.184;8.538;2023-08-30T00:08:34;12.90;99.90
7516;DHT22;3799;47.184;8.538;2023-08-30T00:11:04;13.20;99.90
7516;DHT22;3799;47.184;8.538;2023-08-30T00:13:32;13.20;99.90
7516;DHT22;3799;47.184;8.538;2023-08-30T00:16:01;13.10;99.90
7516;DHT22;3799;47.184;8.538;2023-08-30T00:18:30;12.90;99.90
7516;DHT22;3799;47.184;8.538;2023-08-30T00:21:00;12.90;99.90
7516;DHT22;3799;47.184;8.538;2023-08-30T00:23:28;13.00;99.90
7516;DHT22;3799;47.184;8.538;2023-08-30T00:25:55;13.10;99.90
7516;DHT22;3799;47.184;8.538;2023-08-30T00:28:22;12.70;99.90
7516;DHT22;3799;47.184;8.538;2023-08-30T00:30:57;12.90;99.90
7516;DHT22;3799;47.184;8.538;2023-08-30T00:33:27;12.80;99.90
7516;DHT22;3799;47.184;8.538;2023-08-30T00:35:58;12.80;99.90
7516;DHT22;3799;47.184;8.538;2023-08-30T00:38:30;12.90;99.90
7516;DHT22;3799;47.184;8.538;2023-08-30T00:41:00;12.80;99.90
7516;DHT22;3799;47.184;8.538;2023-08-30T00:43:27;12.80;99.90
7516;DHT22;3799;47.184;8.538;2023-08-30T00:45:54;12.60;99.90
7516;DHT22;3799;47.184;8.538;2023-08-30T00:48:22;12.80;99.90
7516;DHT22;3799;47.184;8.538;2023-08-30T00:50:49;12.80;99.90
7516;DHT22;3799;47.184;8.538;2023-08-30T00:53:16;13.00;99.90
7516;DHT22;3799;47.184;8.538;2023-08-30T00:55:44;12.50;99.90
7516;DHT22;3799;47.184;8.538;2023-08-30T00:58:12;12.50;99.90
7516;DHT22;3799;47.184;8.538;2023-08-30T01:00:40;12.40;99.90
7516;DHT22;3799;47.184;8.538;2023-08-30T01:03:09;12.60;99.90
7516;DHT22;3799;47.184;8.538;2023-08-30T01:05:37;12.80;99.90
7516;DHT22;3799;47.184;8.538;2023-08-30T01:08:05;12.50;99.90
7516;DHT22;3799;47.184;8.538;2023-08-30T01:10:44;12.70;99.90
7516;DHT22;3799;47.184;8.538;2023-08-30T01:13:16;12.70;99.90
7516;DHT22;3799;47.184;8.538;2023-08-30T01:15:47;12.80;99.90
7516;DHT22;3799;47.184;8.538;2023-08-30T01:18:28;13.10;99.90
7516;DHT22;3799;47.184;8.538;2023-08-30T01:20:58;12.80;99.90
7516;DHT22;3799;47.184;8.538;2023-08-30T01:23:40;13.00;99.90
7516;DHT22;3799;47.184;8.538;2023-08-30T01:29:03;12.80;99.90
7516;DHT22;3799;47.184;8.538;2023-08-30T01:31:34;13.00;99.90
7516;DHT22;3799;47.184;8.538;2023-08-30T01:34:05;12.70;99.90
7516;DHT22;3799;47.184;8.538;2023-08-30T01:36:32;13.00;99.90
7516;DHT22;3799;47.184;8.538;2023-08-30T01:39:03;12.80;99.90
7516;DHT22;3799;47.184;8.538;2023-08-30T01:41:32;12.70;99.90
7516;DHT22;3799;47.184;8.538;2023-08-30T01:44:14;13.00;99.90
7516;DHT22;3799;47.184;8.538;2023-08-30T01:46:56;13.10;99.90
7516;DHT22;3799;47.184;8.538;2023-08-30T01:49:25;13.10;99.90
7516;DHT22;3799;47.184;8.538;2023-08-30T01:51:53;12.80;99.90
7516;DHT22;3799;47.184;8.538;2023-08-30T01:54:21;12.80;99.90
7516;DHT22;3799;47.184;8.538;2023-08-30T01:56:48;13.10;99.90
7516;DHT22;3799;47.184;8.538;2023-08-30T01:59:15;12.90;99.90
7516;DHT22;3799;47.184;8.538;2023-08-30T02:01:44;13.20;99.90
7516;DHT22;3799;47.184;8.538;2023-08-30T02:04:11;13.00;99.90
7516;DHT22;3799;47.184;8.538;2023-08-30T02:06:44;13.10;99.90
7516;DHT22;3799;47.184;8.538;2023-08-30T02:12:49;12.70;99.90
7516;DHT22;3799;47.184;8.538;2023-08-30T02:15:37;12.70;99.90
7516;DHT22;3799;47.184;8.538;2023-08-30T02:18:07;12.70;99.90
7516;DHT22;3799;47.184;8.538;2023-08-30T02:20:35;12.80;99.90
7516;DHT22;3799;47.184;8.538;2023-08-30T02:23:04;12.80;99.90
7516;DHT22;3799;47.184;8.538;2023-08-30T02:25:40;12.80;99.90
7516;DHT22;3799;47.184;8.538;2023-08-30T02:28:10;13.00;99.90
7516;DHT22;3799;47.184;8.538;2023-08-30T02:30:37;13.10;99.90
7516;DHT22;3799;47.184;8.538;2023-08-30T02:33:05;12.80;99.90
7516;DHT22;3799;47.184;8.538;2023-08-30T02:35:34;13.20;99.90
7516;DHT22;3799;47.184;8.538;2023-08-30T02:38:01;12.90;99.90
7516;DHT22;3799;47.184;8.538;2023-08-30T02:40:37;12.70;99.90
7516;DHT22;3799;47.184;8.538;2023-08-30T02:43:04;13.00;99.90
7516;DHT22;3799;47.184;8.538;2023-08-30T02:45:31;13.10;99.90
7516;DHT22;3799;47.184;8.538;2023-08-30T02:47:58;12.80;99.90
7516;DHT22;3799;47.184;8.538;2023-08-30T02:50:25;12.90;99.90
7516;DHT22;3799;47.184;8.538;2023-08-30T02:52:52;12.60;99.90
7516;DHT22;3799;47.184;8.538;2023-08-30T02:55:20;13.00;99.90
7516;DHT22;3799;47.184;8.538;2023-08-30T02:57:47;12.80;99.90
7516;DHT22;3799;47.184;8.538;2023-08-30T03:00:16;12.90;99.90
7516;DHT22;3799;47.184;8.538;2023-08-30T03:02:43;12.70;99.90
7516;DHT22;3799;47.184;8.538;2023-08-30T03:05:15;12.70;99.90
7516;DHT22;3799;47.184;8.538;2023-08-30T03:07:42;12.60;99.90
7516;DHT22;3799;47.184;8.538;2023-08-30T03:10:11;12.70;99.90
7516;DHT22;3799;47.184;8.538;2023-08-30T03:12:47;13.00;99.90
7516;DHT22;3799;47.184;8.538;2023-08-30T03:15:15;13.10;99.90
7516;DHT22;3799;47.184;8.538;2023-08-30T03:17:42;12.90;99.90
7516;DHT22;3799;47.184;8.538;2023-08-30T03:20:09;12.80;99.90
7516;DHT22;3799;47.184;8.538;2023-08-30T03:22:46;12.80;99.90
7516;DHT22;3799;47.184;8.538;2023-08-30T03:25:13;13.10;99.90
7516;DHT22;3799;47.184;8.538;2023-08-30T03:27:43;13.00;99.90
7516;DHT22;3799;47.184;8.538;2023-08-30T03:30:11;12.80;99.90
7516;DHT22;3799;47.184;8.538;2023-08-30T03:32:39;12.60;99.90
7516;DHT22;3799;47.184;8.538;2023-08-30T03:35:07;13.00;99.90
7516;DHT22;3799;47.184;8.538;2023-08-30T03:37:35;13.00;99.90
7516;DHT22;3799;47.184;8.538;2023-08-30T03:40:10;12.60;99.90
7516;DHT22;3799;47.184;8.538;2023-08-30T03:42:44;12.70;99.90
7516;DHT22;3799;47.184;8.538;2023-08-30T03:45:11;12.80;99.90
7516;DHT22;3799;47.184;8.538;2023-08-30T03:47:39;12.90;99.90
7516;DHT22;3799;47.184;8.538;2023-08-30T03:50:06;12.60;99.90
7516;DHT22;3799;47.184;8.538;2023-08-30T03:52:34;13.10;99.90
7516;DHT22;3799;47.184;8.538;2023-08-30T03:55:02;13.00;99.90
7516;DHT22;3799;47.184;8.538;2023-08-30T03:57:29;13.00;99.90
7516;DHT22;3799;47.184;8.538;2023-08-30T03:59:57;12.60;99.90
7516;DHT22;3799;47.184;8.538;2023-08-30T04:02:24;13.00;99.90
7516;DHT22;3799;47.184;8.538;2023-08-30T04:04:51;12.60;99.90
7516;DHT22;3799;47.184;8.538;2023-08-30T04:07:19;12.90;99.90
7516;DHT22;3799;47.184;8.538;2023-08-30T04:09:47;12.90;99.90
7516;DHT22;3799;47.184;8.538;2023-08-30T04:12:14;13.10;99.90
7516;DHT22;3799;47.184;8.538;2023-08-30T04:14:41;13.10;99.90
7516;DHT22;3799;47.184;8.538;2023-08-30T04:17:11;12.90;99.90
7516;DHT22;3799;47.184;8.538;2023-08-30T04:19:39;12.90;99.90
7516;DHT22;3799;47.184;8.538;2023-08-30T04:22:06;13.20;99.90
7516;DHT22;3799;47.184;8.538;2023-08-30T04:24:38;12.90;99.90
7516;DHT22;3799;47.184;8.538;2023-08-30T04:27:05;13.10;99.90
7516;DHT22;3799;47.184;8.538;2023-08-30T04:29:33;13.00;99.90
7516;DHT22;3799;47.184;8.538;2023-08-30T04:32:00;13.20;99.90
7516;DHT22;3799;47.184;8.538;2023-08-30T04:34:33;13.30;99.90
7516;DHT22;3799;47.184;8.538;2023-08-30T04:37:14;12.90;99.90
7516;DHT22;3799;47.184;8.538;2023-08-30T04:39:47;13.00;99.90
7516;DHT22;3799;47.184;8.538;2023-08-30T04:42:15;13.00;99.90
7516;DHT22;3799;47.184;8.538;2023-08-30T04:44:43;13.20;99.90
7516;DHT22;3799;47.184;8.538;2023-08-30T04:47:14;13.00;99.90
7516;DHT22;3799;47.184;8.538;2023-08-30T04:49:58;13.20;99.90
7516;DHT22;3799;47.184;8.538;2023-08-30T04:52:29;12.90;99.90
7516;DHT22;3799;47.184;8.538;2023-08-30T04:54:59;13.00;99.90
7516;DHT22;3799;47.184;8.538;2023-08-30T04:57:29;13.00;99.90
7516;DHT22;3799;47.184;8.538;2023-08-30T05:00:02;13.20;99.90
7516;DHT22;3799;47.184;8.538;2023-08-30T05:02:32;12.80;99.90
7516;DHT22;3799;47.184;8.538;2023-08-30T05:05:00;13.30;99.90
7516;DHT22;3799;47.184;8.538;2023-08-30T05:07:28;13.00;99.90
7516;DHT22;3799;47.184;8.538;2023-08-30T05:09:55;12.90;99.90
7516;DHT22;3799;47.184;8.538;2023-08-30T05:12:23;13.20;99.90
7516;DHT22;3799;47.184;8.538;2023-08-30T05:14:50;13.10;99.90
7516;DHT22;3799;47.184;8.538;2023-08-30T05:17:18;13.00;99.90
7516;DHT22;3799;47.184;8.538;2023-08-30T05:19:45;13.10;99.90
7516;DHT22;3799;47.184;8.538;2023-08-30T05:22:12;12.90;99.90
7516;DHT22;3799;47.184;8.538;2023-08-30T05:24:56;13.20;99.90
7516;DHT22;3799;47.184;8.538;2023-08-30T05:27:26;13.10;99.90
7516;DHT22;3799;47.184;8.538;2023-08-30T05:29:53;13.20;99.90
7516;DHT22;3799;47.184;8.538;2023-08-30T05:32:22;13.30;99.90
7516;DHT22;3799;47.184;8.538;2023-08-30T05:34:59;13.40;99.90
7516;DHT22;3799;47.184;8.538;2023-08-30T05:37:27;13.40;99.90
7516;DHT22;3799;47.184;8.538;2023-08-30T05:39:54;13.30;99.90
7516;DHT22;3799;47.184;8.538;2023-08-30T05:42:21;13.50;99.90
7516;DHT22;3799;47.184;8.538;2023-08-30T05:44:48;13.60;99.90
7516;DHT22;3799;47.184;8.538;2023-08-30T05:47:15;13.70;99.90
7516;DHT22;3799;47.184;8.538;2023-08-30T05:49:46;13.80;99.90
7516;DHT22;3799;47.184;8.538;2023-08-30T05:52:14;14.00;99.90
7516;DHT22;3799;47.184;8.538;2023-08-30T05:54:43;14.30;99.90
7516;DHT22;3799;47.184;8.538;2023-08-30T05:57:10;14.60;99.90
7516;DHT22;3799;47.184;8.538;2023-08-30T05:59:37;14.60;99.90
7516;DHT22;3799;47.184;8.538;2023-08-30T06:02:05;14.70;99.90
7516;DHT22;3799;47.184;8.538;2023-08-30T06:04:32;14.90;99.90
7516;DHT22;3799;47.184;8.538;2023-08-30T06:07:00;14.80;99.90
7516;DHT22;3799;47.184;8.538;2023-08-30T06:09:27;15.00;99.90
7516;DHT22;3799;47.184;8.538;2023-08-30T06:11:55;15.00;99.90
7516;DHT22;3799;47.184;8.538;2023-08-30T06:14:22;15.00;99.90
7516;DHT22;3799;47.184;8.538;2023-08-30T06:16:50;15.30;99.90
7516;DHT22;3799;47.184;8.538;2023-08-30T06:19:17;15.20;99.90
7516;DHT22;3799;47.184;8.538;2023-08-30T06:21:44;15.20;99.90
7516;DHT22;3799;47.184;8.538;2023-08-30T06:24:11;15.30;99.90
7516;DHT22;3799;47.184;8.538;2023-08-30T06:26:38;15.00;99.90
7516;DHT22;3799;47.184;8.538;2023-08-30T06:29:06;15.30;99.90
7516;DHT22;3799;47.184;8.538;2023-08-30T06:31:36;15.20;99.90
7516;DHT22;3799;47.184;8.538;2023-08-30T06:34:11;15.40;99.90
7516;DHT22;3799;47.184;8.538;2023-08-30T06:36:38;15.30;99.90
7516;DHT22;3799;47.184;8.538;2023-08-30T06:39:06;15.40;99.90
7516;DHT22;3799;47.184;8.538;2023-08-30T06:41:33;15.60;99.90
7516;DHT22;3799;47.184;8.538;2023-08-30T06:44:01;15.60;99.90
7516;DHT22;3799;47.184;8.538;2023-08-30T06:46:30;15.50;99.90
7516;DHT22;3799;47.184;8.538;2023-08-30T06:49:14;15.60;99.90
7516;DHT22;3799;47.184;8.538;2023-08-30T06:51:43;15.60;99.90
7516;DHT22;3799;47.184;8.538;2023-08-30T06:54:11;15.60;99.90
7516;DHT22;3799;47.184;8.538;2023-08-30T06:56:38;15.70;99.90
7516;DHT22;3799;47.184;8.538;2023-08-30T06:59:05;15.60;99.90
7516;DHT22;3799;47.184;8.538;2023-08-30T07:01:33;15.80;99.90
7516;DHT22;3799;47.184;8.538;2023-08-30T07:04:02;15.60;99.90
7516;DHT22;3799;47.184;8.538;2023-08-30T07:06:30;15.60;99.90
7516;DHT22;3799;47.184;8.538;2023-08-30T07:08:58;16.00;99.90
7516;DHT22;3799;47.184;8.538;2023-08-30T07:11:25;15.90;99.90
7516;DHT22;3799;47.184;8.538;2023-08-30T07:13:59;15.90;99.90
7516;DHT22;3799;47.184;8.538;2023-08-30T07:16:28;16.10;99.90
7516;DHT22;3799;47.184;8.538;2023-08-30T07:18:55;15.80;99.90
7516;DHT22;3799;47.184;8.538;2023-08-30T07:21:23;15.80;99.90
7516;DHT22;3799;47.184;8.538;2023-08-30T07:23:50;16.20;99.90
7516;DHT22;3799;47.184;8.538;2023-08-30T07:26:17;16.00;99.90
7516;DHT22;3799;47.184;8.538;2023-08-30T07:28:45;16.00;99.90
7516;DHT22;3799;47.184;8.538;2023-08-30T07:31:13;16.40;99.90
7516;DHT22;3799;47.184;8.538;2023-08-30T07:33:45;16.40;99.90
7516;DHT22;3799;47.184;8.538;2023-08-30T07:36:12;16.40;99.90
7516;DHT22;3799;47.184;8.538;2023-08-30T07:38:40;16.60;99.90
7516;DHT22;3799;47.184;8.538;2023-08-30T07:41:10;16.60;99.90
7516;DHT22;3799;47.184;8.538;2023-08-30T07:43:38;16.90;99.90
7516;DHT22;3799;47.184;8.538;2023-08-30T07:46:05;16.70;99.90
7516;DHT22;3799;47.184;8.538;2023-08-30T07:48:33;16.90;99.90
7516;DHT22;3799;47.184;8.538;2023-08-30T07:51:00;16.80;99.90
7516;DHT22;3799;47.184;8.538;2023-08-30T07:53:27;17.10;99.90
7516;DHT22;3799;47.184;8.538;2023-08-30T07:55:54;17.10;99.90
7516;DHT22;3799;47.184;8.538;2023-08-30T07:58:22;17.10;99.90
7516;DHT22;3799;47.184;8.538;2023-08-30T08:00:52;17.30;99.90
7516;DHT22;3799;47.184;8.538;2023-08-30T08:03:21;17.20;99.90
7516;DHT22;3799;47.184;8.538;2023-08-30T08:05:49;17.20;99.90
7516;DHT22;3799;47.184;8.538;2023-08-30T08:08:16;17.30;99.90
7516;DHT22;3799;47.184;8.538;2023-08-30T08:10:44;17.40;99.90
7516;DHT22;3799;47.184;8.538;2023-08-30T08:13:11;17.40;99.90
7516;DHT22;3799;47.184;8.538;2023-08-30T08:15:40;17.50;99.90
7516;DHT22;3799;47.184;8.538;2023-08-30T08:18:08;17.40;99.90
7516;DHT22;3799;47.184;8.538;2023-08-30T08:20:35;17.40;99.90
7516;DHT22;3799;47.184;8.538;2023-08-30T08:23:03;17.70;99.90
7516;DHT22;3799;47.184;8.538;2023-08-30T08:25:37;17.60;99.90
7516;DHT22;3799;47.184;8.538;2023-08-30T08:28:05;17.60;99.90
7516;DHT22;3799;47.184;8.538;2023-08-30T08:30:33;17.80;99.90
7516;DHT22;3799;47.184;8.538;2023-08-30T08:33:03;17.90;99.90
7516;DHT22;3799;47.184;8.538;2023-08-30T08:35:38;17.80;99.90
7516;DHT22;3799;47.184;8.538;2023-08-30T08:38:09;18.00;99.90
7516;DHT22;3799;47.184;8.538;2023-08-30T08:40:37;18.10;99.90
7516;DHT22;3799;47.184;8.538;2023-08-30T08:43:10;17.90;99.90
7516;DHT22;3799;47.184;8.538;2023-08-30T08:45:38;18.10;99.90
7516;DHT22;3799;47.184;8.538;2023-08-30T08:48:11;18.10;99.90
7516;DHT22;3799;47.184;8.538;2023-08-30T08:50:40;18.00;99.90
7516;DHT22;3799;47.184;8.538;2023-08-30T08:53:10;18.20;99.90
7516;DHT22;3799;47.184;8.538;2023-08-30T08:55:39;18.40;99.90
7516;DHT22;3799;47.184;8.538;2023-08-30T08:58:09;18.30;99.90
7516;DHT22;3799;47.184;8.538;2023-08-30T09:00:37;18.40;99.90
7516;DHT22;3799;47.184;8.538;2023-08-30T09:03:05;18.40;99.90
7516;DHT22;3799;47.184;8.538;2023-08-30T09:05:37;18.30;99.90
7516;DHT22;3799;47.184;8.538;2023-08-30T09:08:06;18.60;99.90
7516;DHT22;3799;47.184;8.538;2023-08-30T09:10:34;18.60;99.90
7516;DHT22;3799;47.184;8.538;2023-08-30T09:13:03;18.60;99.90
7516;DHT22;3799;47.184;8.538;2023-08-30T09:15:34;19.10;99.90
7516;DHT22;3799;47.184;8.538;2023-08-30T09:18:04;19.20;99.90
7516;DHT22;3799;47.184;8.538;2023-08-30T09:20:31;18.80;99.90
7516;DHT22;3799;47.184;8.538;2023-08-30T09:22:58;18.90;99.90
7516;DHT22;3799;47.184;8.538;2023-08-30T09:25:28;18.90;98.20
7516;DHT22;3799;47.184;8.538;2023-08-30T09:27:57;19.30;99.90
7516;DHT22;3799;47.184;8.538;2023-08-30T09:30:27;19.50;99.90
7516;DHT22;3799;47.184;8.538;2023-08-30T09:33:01;19.40;99.90
7516;DHT22;3799;47.184;8.538;2023-08-30T09:35:29;20.10;99.60
7516;DHT22;3799;47.184;8.538;2023-08-30T09:38:01;20.30;99.90
7516;DHT22;3799;47.184;8.538;2023-08-30T09:40:48;20.40;98.00
7516;DHT22;3799;47.184;8.538;2023-08-30T09:43:19;20.60;95.40
7516;DHT22;3799;47.184;8.538;2023-08-30T09:45:48;20.60;93.70
7516;DHT22;3799;47.184;8.538;2023-08-30T09:48:27;20.60;93.10
7516;DHT22;3799;47.184;8.538;2023-08-30T09:50:58;20.70;92.60
7516;DHT22;3799;47.184;8.538;2023-08-30T09:53:35;20.70;92.30
7516;DHT22;3799;47.184;8.538;2023-08-30T09:56:15;20.80;91.60
7516;DHT22;3799;47.184;8.538;2023-08-30T09:58:46;20.90;91.10
7516;DHT22;3799;47.184;8.538;2023-08-30T10:01:14;21.00;89.20
7516;DHT22;3799;47.184;8.538;2023-08-30T10:03:42;20.90;85.80
7516;DHT22;3799;47.184;8.538;2023-08-30T10:06:13;21.00;87.60
7516;DHT22;3799;47.184;8.538;2023-08-30T10:08:43;21.00;88.00
7516;DHT22;3799;47.184;8.538;2023-08-30T10:11:12;21.20;88.20
7516;DHT22;3799;47.184;8.538;2023-08-30T10:13:42;21.40;87.80
7516;DHT22;3799;47.184;8.538;2023-08-30T10:16:14;21.50;86.20
7516;DHT22;3799;47.184;8.538;2023-08-30T10:18:43;21.50;86.30
7516;DHT22;3799;47.184;8.538;2023-08-30T10:21:29;21.60;87.50
7516;DHT22;3799;47.184;8.538;2023-08-30T10:23:58;21.70;87.20
7516;DHT22;3799;47.184;8.538;2023-08-30T10:26:28;21.70;84.20
7516;DHT22;3799;47.184;8.538;2023-08-30T10:28:56;21.70;85.50
7516;DHT22;3799;47.184;8.538;2023-08-30T10:31:24;21.80;85.40
7516;DHT22;3799;47.184;8.538;2023-08-30T10:33:57;22.00;84.70
7516;DHT22;3799;47.184;8.538;2023-08-30T10:36:26;22.10;82.20
7516;DHT22;3799;47.184;8.538;2023-08-30T10:38:54;22.20;82.00
7516;DHT22;3799;47.184;8.538;2023-08-30T10:41:25;22.40;78.80
7516;DHT22;3799;47.184;8.538;2023-08-30T10:43:55;22.50;77.10
7516;DHT22;3799;47.184;8.538;2023-08-30T10:46:32;22.70;76.50
7516;DHT22;3799;47.184;8.538;2023-08-30T10:49:18;22.80;75.00
7516;DHT22;3799;47.184;8.538;2023-08-30T10:51:45;22.90;73.10
7516;DHT22;3799;47.184;8.538;2023-08-30T10:54:16;23.00;74.30
7516;DHT22;3799;47.184;8.538;2023-08-30T10:56:47;23.10;71.00
7516;DHT22;3799;47.184;8.538;2023-08-30T10:59:19;23.20;70.70
7516;DHT22;3799;47.184;8.538;2023-08-30T11:01:48;23.30;67.70
7516;DHT22;3799;47.184;8.538;2023-08-30T11:04:17;23.40;67.80
7516;DHT22;3799;47.184;8.538;2023-08-30T11:06:46;23.50;66.50
7516;DHT22;3799;47.184;8.538;2023-08-30T11:09:14;23.60;63.10
7516;DHT22;3799;47.184;8.538;2023-08-30T11:11:42;23.60;61.50
7516;DHT22;3799;47.184;8.538;2023-08-30T11:14:09;23.60;60.30
7516;DHT22;3799;47.184;8.538;2023-08-30T11:16:38;23.50;60.90
7516;DHT22;3799;47.184;8.538;2023-08-30T11:19:07;23.40;63.10
7516;DHT22;3799;47.184;8.538;2023-08-30T11:21:47;23.50;63.10
7516;DHT22;3799;47.184;8.538;2023-08-30T11:24:15;23.50;62.40
7516;DHT22;3799;47.184;8.538;2023-08-30T11:26:43;23.40;62.00
7516;DHT22;3799;47.184;8.538;2023-08-30T11:29:10;23.60;61.20
7516;DHT22;3799;47.184;8.538;2023-08-30T11:31:37;23.70;59.40
7516;DHT22;3799;47.184;8.538;2023-08-30T11:34:04;23.80;59.50
7516;DHT22;3799;47.184;8.538;2023-08-30T11:36:35;23.80;60.20
7516;DHT22;3799;47.184;8.538;2023-08-30T11:39:09;24.00;60.30
7516;DHT22;3799;47.184;8.538;2023-08-30T11:41:38;24.20;60.50
7516;DHT22;3799;47.184;8.538;2023-08-30T11:44:06;24.20;60.80
7516;DHT22;3799;47.184;8.538;2023-08-30T11:46:33;24.20;61.80
7516;DHT22;3799;47.184;8.538;2023-08-30T11:49:00;24.10;61.80
7516;DHT22;3799;47.184;8.538;2023-08-30T11:51:29;24.00;61.10
7516;DHT22;3799;47.184;8.538;2023-08-30T11:53:57;23.70;61.40
7516;DHT22;3799;47.184;8.538;2023-08-30T11:56:24;23.50;61.60
7516;DHT22;3799;47.184;8.538;2023-08-30T11:58:52;23.20;61.50
7516;DHT22;3799;47.184;8.538;2023-08-30T12:01:19;23.20;62.80
7516;DHT22;3799;47.184;8.538;2023-08-30T12:03:47;23.20;61.20
7516;DHT22;3799;47.184;8.538;2023-08-30T12:06:17;23.10;59.90
7516;DHT22;3799;47.184;8.538;2023-08-30T12:08:45;22.90;61.60
7516;DHT22;3799;47.184;8.538;2023-08-30T12:11:19;22.90;60.40
7516;DHT22;3799;47.184;8.538;2023-08-30T12:13:49;22.80;62.20
7516;DHT22;3799;47.184;8.538;2023-08-30T12:16:20;22.80;60.90
7516;DHT22;3799;47.184;8.538;2023-08-30T12:18:51;22.80;60.30
7516;DHT22;3799;47.184;8.538;2023-08-30T12:21:18;23.00;60.10
7516;DHT22;3799;47.184;8.538;2023-08-30T12:23:46;23.20;59.50
7516;DHT22;3799;47.184;8.538;2023-08-30T12:26:13;23.40;58.50
7516;DHT22;3799;47.184;8.538;2023-08-30T12:28:42;23.50;58.10
7516;DHT22;3799;47.184;8.538;2023-08-30T12:31:11;23.60;57.60
7516;DHT22;3799;47.184;8.538;2023-08-30T12:33:39;23.70;56.00
7516;DHT22;3799;47.184;8.538;2023-08-30T12:36:08;23.60;55.10
7516;DHT22;3799;47.184;8.538;2023-08-30T12:38:36;23.60;54.90
7516;DHT22;3799;47.184;8.538;2023-08-30T12:41:03;23.80;54.80
7516;DHT22;3799;47.184;8.538;2023-08-30T12:43:30;23.90;53.40
7516;DHT22;3799;47.184;8.538;2023-08-30T12:45:58;23.80;52.90
7516;DHT22;3799;47.184;8.538;2023-08-30T12:48:27;23.50;53.40
7516;DHT22;3799;47.184;8.538;2023-08-30T12:50:55;23.50;54.00
7516;DHT22;3799;47.184;8.538;2023-08-30T12:53:24;23.50;54.40
7516;DHT22;3799;47.184;8.538;2023-08-30T12:55:51;23.60;53.80
7516;DHT22;3799;47.184;8.538;2023-08-30T12:58:19;23.50;53.30
7516;DHT22;3799;47.184;8.538;2023-08-30T13:00:46;23.40;53.10
7516;DHT22;3799;47.184;8.538;2023-08-30T13:03:14;23.30;53.70
7516;DHT22;3799;47.184;8.538;2023-08-30T13:05:41;23.20;53.90
7516;DHT22;3799;47.184;8.538;2023-08-30T13:08:11;23.10;53.90
7516;DHT22;3799;47.184;8.538;2023-08-30T13:10:39;23.00;54.50
7516;DHT22;3799;47.184;8.538;2023-08-30T13:13:07;22.90;54.40
7516;DHT22;3799;47.184;8.538;2023-08-30T13:15:35;22.90;54.30
7516;DHT22;3799;47.184;8.538;2023-08-30T13:18:06;22.80;54.70
7516;DHT22;3799;47.184;8.538;2023-08-30T13:20:38;22.80;54.50
7516;DHT22;3799;47.184;8.538;2023-08-30T13:23:06;22.70;54.40
7516;DHT22;3799;47.184;8.538;2023-08-30T13:25:34;22.70;54.30
7516;DHT22;3799;47.184;8.538;2023-08-30T13:28:09;22.70;54.70
7516;DHT22;3799;47.184;8.538;2023-08-30T13:30:36;22.60;54.60
7516;DHT22;3799;47.184;8.538;2023-08-30T13:33:11;22.70;54.70
7516;DHT22;3799;47.184;8.538;2023-08-30T13:35:40;23.00;55.00
7516;DHT22;3799;47.184;8.538;2023-08-30T13:38:09;23.50;55.00
7516;DHT22;3799;47.184;8.538;2023-08-30T13:40:38;24.00;54.50
7516;DHT22;3799;47.184;8.538;2023-08-30T13:43:06;24.60;53.60
7516;DHT22;3799;47.184;8.538;2023-08-30T13:45:34;25.10;53.20
7516;DHT22;3799;47.184;8.538;2023-08-30T13:48:14;25.40;51.90
7516;DHT22;3799;47.184;8.538;2023-08-30T13:50:42;25.60;51.70
7516;DHT22;3799;47.184;8.538;2023-08-30T13:53:09;25.80;51.00
7516;DHT22;3799;47.184;8.538;2023-08-30T13:55:36;25.60;51.00
7516;DHT22;3799;47.184;8.538;2023-08-30T13:58:07;25.30;51.10
7516;DHT22;3799;47.184;8.538;2023-08-30T14:00:37;25.20;51.30
7516;DHT22;3799;47.184;8.538;2023-08-30T14:03:42;25.30;50.90
7516;DHT22;3799;47.184;8.538;2023-08-30T14:06:09;25.30;50.30
7516;DHT22;3799;47.184;8.538;2023-08-30T14:08:36;25.00;51.00
7516;DHT22;3799;47.184;8.538;2023-08-30T14:11:07;24.60;51.20
7516;DHT22;3799;47.184;8.538;2023-08-30T14:13:34;24.30;52.20
7516;DHT22;3799;47.184;8.538;2023-08-30T14:16:02;23.90;52.50
7516;DHT22;3799;47.184;8.538;2023-08-30T14:18:36;23.50;52.50
7516;DHT22;3799;47.184;8.538;2023-08-30T14:21:03;23.20;53.10
7516;DHT22;3799;47.184;8.538;2023-08-30T14:23:36;23.00;53.20
7516;DHT22;3799;47.184;8.538;2023-08-30T14:26:06;22.80;53.60
7516;DHT22;3799;47.184;8.538;2023-08-30T14:28:37;22.80;53.40
7516;DHT22;3799;47.184;8.538;2023-08-30T14:31:07;23.10;53.30
7516;DHT22;3799;47.184;8.538;2023-08-30T14:33:37;23.40;53.70
7516;DHT22;3799;47.184;8.538;2023-08-30T14:36:11;23.80;53.00
7516;DHT22;3799;47.184;8.538;2023-08-30T14:38:39;24.30;52.70
7516;DHT22;3799;47.184;8.538;2023-08-30T14:41:07;24.90;52.30
7516;DHT22;3799;47.184;8.538;2023-08-30T14:43:34;25.50;51.30
7516;DHT22;3799;47.184;8.538;2023-08-30T14:46:04;26.00;50.60
7516;DHT22;3799;47.184;8.538;2023-08-30T14:48:39;26.20;48.70
7516;DHT22;3799;47.184;8.538;2023-08-30T14:51:06;26.40;49.00
7516;DHT22;3799;47.184;8.538;2023-08-30T14:53:37;26.50;48.10
7516;DHT22;3799;47.184;8.538;2023-08-30T14:56:04;26.50;48.70
7516;DHT22;3799;47.184;8.538;2023-08-30T14:58:35;26.60;49.00
7516;DHT22;3799;47.184;8.538;2023-08-30T15:01:03;26.70;48.50
7516;DHT22;3799;47.184;8.538;2023-08-30T15:03:31;26.70;48.40
7516;DHT22;3799;47.184;8.538;2023-08-30T15:05:59;26.80;48.20
7516;DHT22;3799;47.184;8.538;2023-08-30T15:08:26;26.90;48.00
7516;DHT22;3799;47.184;8.538;2023-08-30T15:10:53;26.80;47.50
7516;DHT22;3799;47.184;8.538;2023-08-30T15:13:21;26.40;47.50
7516;DHT22;3799;47.184;8.538;2023-08-30T15:15:48;25.90;47.50
7516;DHT22;3799;47.184;8.538;2023-08-30T15:18:15;25.30;48.30
7516;DHT22;3799;47.184;8.538;2023-08-30T15:20:44;24.80;48.90
7516;DHT22;3799;47.184;8.538;2023-08-30T15:23:13;24.30;49.80
7516;DHT22;3799;47.184;8.538;2023-08-30T15:25:50;24.00;50.50
7516;DHT22;3799;47.184;8.538;2023-08-30T15:28:17;23.50;51.00
7516;DHT22;3799;47.184;8.538;2023-08-30T15:30:46;23.10;51.60
7516;DHT22;3799;47.184;8.538;2023-08-30T15:33:13;22.70;52.10
7516;DHT22;3799;47.184;8.538;2023-08-30T15:35:46;22.40;52.50
7516;DHT22;3799;47.184;8.538;2023-08-30T15:38:13;22.00;52.60
7516;DHT22;3799;47.184;8.538;2023-08-30T15:40:42;21.70;53.10
7516;DHT22;3799;47.184;8.538;2023-08-30T15:43:16;21.40;53.50
7516;DHT22;3799;47.184;8.538;2023-08-30T15:45:44;21.10;53.90
7516;DHT22;3799;47.184;8.538;2023-08-30T15:48:11;21.00;54.60
7516;DHT22;3799;47.184;8.538;2023-08-30T15:50:38;20.80;54.90
7516;DHT22;3799;47.184;8.538;2023-08-30T15:53:06;20.70;55.50
7516;DHT22;3799;47.184;8.538;2023-08-30T15:55:36;20.70;56.10
7516;DHT22;3799;47.184;8.538;2023-08-30T15:58:04;20.60;56.20
7516;DHT22;3799;47.184;8.538;2023-08-30T16:00:31;20.50;56.20
7516;DHT22;3799;47.184;8.538;2023-08-30T16:03:03;20.40;56.50
7516;DHT22;3799;47.184;8.538;2023-08-30T16:05:31;20.30;57.00
7516;DHT22;3799;47.184;8.538;2023-08-30T16:07:58;20.30;57.00
7516;DHT22;3799;47.184;8.538;2023-08-30T16:10:56;20.20;57.00
7516;DHT22;3799;47.184;8.538;2023-08-30T16:13:23;20.20;57.70
7516;DHT22;3799;47.184;8.538;2023-08-30T16:15:50;20.20;57.80
7516;DHT22;3799;47.184;8.538;2023-08-30T16:18:22;20.20;57.80
7516;DHT22;3799;47.184;8.538;2023-08-30T16:20:50;20.20;57.60
7516;DHT22;3799;47.184;8.538;2023-08-30T16:23:18;20.20;58.20